Meadow Grove, Nebraska
Current Conditions -  °F | °C
As of 3:56 AM on Friday 31 Oct 2014 (Local Time) from KOFK Reporting Station
Clear Clear  
Wind Chill: 18°   Ceiling: Unl
Heat Index: 29°   Visibility: 10mi
Dew Point: 19°   Wind: 15mph
Humidity: 67%   Direction: 360°N
Pressure: 30.5"   Gusts: NA
Location:  42.03°N, 97.73°W
Report Text: KOFK 310856Z AUTO 36013KT 10SM CLR M02/M07 A3050 RMK AO2 SLP340 T10171072 50016
Loading
Personal Weather Stations






























Interactive Weather Map
Tropical Storm Tracking
New forecast layout! Learn more

10-Day Weather Forecast

Advertisements
Track Severe Weather on mobile